Time;durP1;ratioP1;P1;durP2;ratioP2;P2;SDS_P1;SDS_P2;PMS_P1;PMS_P2;Temp;Humidity;BMP_temperature;BMP_pressure;BME280_temperature;BME280_humidity;BME280_pressure;Samples;Min_cycle;Max_cycle;Signal;HPM_P1;HPM_P2
2022/09/25 00:00:32;;;;;;;;;6.25;4.50;;;;;17.71;57.98;100876.53;2060097;28;48087;-66
2022/09/25 00:01:32;;;;;;;;;4.33;4.33;;;;;17.69;57.58;100875.75;2071065;28;47535;-67
2022/09/25 00:02:33;;;;;;;;;7.33;5.67;;;;;17.65;57.77;100865.09;2077276;28;47124;-66
2022/09/25 00:03:33;;;;;;;;;4.00;4.00;;;;;17.63;57.88;100871.50;2087481;28;47647;-67
2022/09/25 00:04:33;;;;;;;;;5.00;5.00;;;;;17.62;57.99;100872.44;2078668;28;47787;-66
2022/09/25 00:05:35;;;;;;;;;5.00;5.00;;;;;17.60;58.18;100869.84;2077998;28;47503;-65
2022/09/25 00:06:38;;;;;;;;;3.00;3.00;;;;;17.59;58.13;100867.22;2076692;28;47580;-67
2022/09/25 00:07:38;;;;;;;;;6.50;5.00;;;;;17.58;58.13;100882.47;2078227;28;47469;-66
2022/09/25 00:08:39;;;;;;;;;4.67;4.67;;;;;17.57;58.16;100879.88;2087256;28;47182;-67
2022/09/25 00:09:39;;;;;;;;;5.33;5.33;;;;;17.54;57.97;100880.03;2086385;28;47658;-66
2022/09/25 00:10:48;;;;;;;;;6.67;6.67;;;;;17.53;58.05;100876.47;2079010;28;48324;-67
2022/09/25 00:11:48;;;;;;;;;6.00;6.00;;;;;17.52;58.24;100881.88;2070051;28;47642;-67
2022/09/25 00:12:49;;;;;;;;;5.67;5.67;;;;;17.52;58.15;100881.88;2071249;28;46098;-66
2022/09/25 00:13:50;;;;;;;;;8.00;7.00;;;;;17.52;57.86;100880.06;2069009;28;47920;-66
2022/09/25 00:14:51;;;;;;;;;4.50;4.50;;;;;17.51;58.18;100880.13;2070073;28;47183;-67
2022/09/25 00:15:54;;;;;;;;;6.33;6.33;;;;;17.50;58.26;100879.28;2078089;28;47988;-66
2022/09/25 00:16:55;;;;;;;;;6.75;6.00;;;;;17.49;58.52;100879.34;2070185;28;47791;-67
2022/09/25 00:17:55;;;;;;;;;5.67;5.33;;;;;17.50;58.24;100875.72;2069342;28;47208;-66
2022/09/25 00:20:19;;;;;;;;;5.25;4.75;;;;;17.51;58.34;100886.38;2077780;28;47491;-67
2022/09/25 00:21:19;;;;;;;;;5.00;5.00;;;;;17.50;58.30;100881.94;2079487;28;47868;-66
2022/09/25 00:22:23;;;;;;;;;8.00;6.00;;;;;17.50;58.04;100886.44;2077702;28;47371;-67
2022/09/25 00:23:24;;;;;;;;;8.50;7.75;;;;;17.49;58.18;100882.91;2079722;28;47746;-66
2022/09/25 00:24:25;;;;;;;;;7.00;7.00;;;;;17.50;58.25;100884.63;2077666;28;46736;-67
2022/09/25 00:25:27;;;;;;;;;3.00;3.00;;;;;17.49;58.46;100882.91;2079266;28;48337;-67
2022/09/25 00:26:29;;;;;;;;;5.50;5.50;;;;;17.48;58.35;100883.84;2077190;28;47556;-66
2022/09/25 00:27:30;;;;;;;;;6.00;6.00;;;;;17.47;58.43;100882.09;2069737;28;47444;-67
2022/09/25 00:28:31;;;;;;;;;4.00;4.00;;;;;17.46;58.19;100888.41;2069707;28;45473;-68
2022/09/25 00:29:31;;;;;;;;;5.00;4.00;;;;;17.45;58.15;100888.50;2080697;28;47372;-66
2022/09/25 00:30:31;;;;;;;;;6.00;4.67;;;;;17.43;58.22;100885.88;2077471;28;47473;-67
2022/09/25 00:31:33;;;;;;;;;5.33;3.67;;;;;17.44;58.37;100894.81;2074582;28;47883;-67
2022/09/25 00:32:34;;;;;;;;;4.00;3.25;;;;;17.44;58.49;100886.75;2070250;28;47828;-67
2022/09/25 00:33:35;;;;;;;;;6.67;5.67;;;;;17.44;58.35;100889.44;2079008;28;47256;-66
2022/09/25 00:34:37;;;;;;;;;7.00;6.00;;;;;17.43;58.48;100888.56;2078820;28;47722;-66
2022/09/25 00:35:38;;;;;;;;;5.00;4.25;;;;;17.42;58.49;100886.84;2078478;28;48151;-66
2022/09/25 00:36:38;;;;;;;;;4.67;4.33;;;;;17.43;58.66;100885.88;2076226;28;47764;-66
2022/09/25 00:37:39;;;;;;;;;4.33;3.67;;;;;17.43;58.41;100888.56;2075107;28;47492;-66
2022/09/25 00:38:39;;;;;;;;;6.00;6.00;;;;;17.43;58.54;100882.34;2079182;28;47032;-67
2022/09/25 00:39:39;;;;;;;;;6.33;6.33;;;;;17.43;58.18;100885.03;2078903;28;47859;-66
2022/09/25 00:40:40;;;;;;;;;7.00;5.67;;;;;17.43;58.29;100876.97;2078829;28;47523;-66
2022/09/25 00:41:40;;;;;;;;;4.33;4.33;;;;;17.41;58.21;100879.72;2077859;28;47320;-67
2022/09/25 00:42:40;;;;;;;;;4.00;4.00;;;;;17.40;58.20;100872.59;2067351;28;46935;-66
2022/09/25 00:43:43;;;;;;;;;3.00;3.00;;;;;17.39;58.54;100878.91;2062815;28;47306;-67
2022/09/25 00:44:57;;;;;;;;;3.00;3.00;;;;;17.38;58.76;100879.84;2074856;28;47705;-67
2022/09/25 00:45:59;;;;;;;;;4.75;4.75;;;;;17.36;58.57;100876.38;2076814;28;47659;-67
2022/09/25 00:46:59;;;;;;;;;5.00;5.00;;;;;17.36;58.45;100879.94;2079375;28;47587;-66
2022/09/25 00:48:03;;;;;;;;;6.25;6.25;;;;;17.35;58.65;100871.97;2069736;28;47361;-67
2022/09/25 00:49:11;;;;;;;;;6.75;6.75;;;;;17.34;58.88;100871.09;2069964;28;47855;-67
2022/09/25 00:50:27;;;;;;;;;5.00;5.00;;;;;17.33;58.48;100874.72;2078922;28;48535;-67
2022/09/25 00:51:43;;;;;;;;;6.25;6.00;;;;;17.33;58.72;100869.34;2078796;28;47154;-66
2022/09/25 00:52:45;;;;;;;;;5.00;4.25;;;;;17.32;58.69;100877.47;2078189;28;48087;-67
2022/09/25 00:53:46;;;;;;;;;4.25;3.25;;;;;17.32;58.79;100870.28;2074180;28;47861;-66
2022/09/25 00:54:52;;;;;;;;;4.75;4.00;;;;;17.31;58.80;100871.25;2079421;28;48011;-66
2022/09/25 00:55:55;;;;;;;;;6.25;5.00;;;;;17.31;58.66;100878.41;2073137;28;47976;-66
2022/09/25 00:56:59;;;;;;;;;6.50;6.50;;;;;17.29;58.62;100870.44;2065635;28;47651;-67
2022/09/25 00:58:02;;;;;;;;;7.40;6.60;;;;;17.26;58.73;100872.38;2068604;28;47477;-66
2022/09/25 00:59:04;;;;;;;;;4.80;4.80;;;;;17.25;58.62;100871.50;2072448;28;47623;-68
2022/09/25 01:00:09;;;;;;;;;7.20;6.00;;;;;17.24;58.65;100874.28;2069451;28;47931;-66
2022/09/25 01:01:09;;;;;;;;;5.75;5.50;;;;;17.24;58.86;100869.78;2072423;28;47941;-67
2022/09/25 01:02:16;;;;;;;;;4.00;3.40;;;;;17.24;58.70;100872.47;2067963;28;47231;-66
2022/09/25 01:03:18;;;;;;;;;5.80;5.80;;;;;17.24;58.61;100874.28;2069189;28;47760;-66
2022/09/25 01:04:21;;;;;;;;;5.20;5.00;;;;;17.24;59.07;100874.28;2076642;28;47546;-67
2022/09/25 01:05:33;;;;;;;;;5.20;5.20;;;;;17.24;58.80;100875.13;2079126;28;47884;-67
2022/09/25 01:06:34;;;;;;;;;3.80;3.80;;;;;17.24;58.59;100874.28;2078742;28;47502;-67
2022/09/25 01:07:39;;;;;;;;;4.60;4.60;;;;;17.23;58.57;100873.41;2078745;28;47617;-67
2022/09/25 01:08:40;;;;;;;;;5.80;5.20;;;;;17.24;59.01;100874.28;2076105;28;47713;-66
2022/09/25 01:09:41;;;;;;;;;4.60;4.60;;;;;17.24;58.56;100875.13;2082209;28;47887;-66
2022/09/25 01:10:42;;;;;;;;;4.40;4.00;;;;;17.25;58.55;100873.31;2077804;28;47447;-67
2022/09/25 01:11:44;;;;;;;;;6.25;4.50;;;;;17.24;58.66;100875.13;2070108;28;47938;-66
2022/09/25 01:12:47;;;;;;;;;4.75;4.25;;;;;17.24;58.74;100876.94;2067142;28;47366;-67
2022/09/25 01:13:48;;;;;;;;;6.00;5.00;;;;;17.24;58.83;100883.19;2067142;28;45809;-65
2022/09/25 01:14:48;;;;;;;;;6.75;5.00;;;;;17.23;58.80;100872.53;2075070;28;48126;-67
2022/09/25 01:16:08;;;;;;;;;6.00;4.75;;;;;17.21;58.74;100883.34;2077161;28;47933;-64
2022/09/25 01:17:28;;;;;;;;;4.20;4.20;;;;;17.18;59.10;100874.56;2076669;28;47909;-66
2022/09/25 01:19:02;;;;;;;;;5.80;5.00;;;;;17.16;59.02;100877.31;2078080;28;47736;-66
2022/09/25 01:20:37;;;;;;;;;7.00;5.60;;;;;17.14;58.74;100873.81;2073719;28;47405;-67
2022/09/25 01:21:43;;;;;;;;;5.00;4.75;;;;;17.12;59.03;100881.06;2073779;28;47463;-65
2022/09/25 01:23:16;;;;;;;;;5.20;5.20;;;;;17.11;59.04;100868.59;2072122;28;48074;-66
2022/09/25 01:24:49;;;;;;;;;3.75;3.75;;;;;17.10;59.30;100874.03;2067650;28;47493;-66
2022/09/25 01:26:00;;;;;;;;;5.25;5.25;;;;;17.09;59.02;100875.00;2071400;28;48014;-66
2022/09/25 01:27:30;;;;;;;;;6.50;5.75;;;;;17.06;58.85;100874.19;2068506;28;47493;-67
2022/09/25 01:28:57;;;;;;;;;5.75;5.25;;;;;17.05;59.22;100874.25;2070325;28;47512;-66
2022/09/25 01:30:04;;;;;;;;;3.25;3.25;;;;;17.01;59.12;100870.84;2078369;28;48292;-67
2022/09/25 01:31:32;;;;;;;;;5.00;5.00;;;;;17.00;59.35;100877.13;2074221;28;47511;-66
2022/09/25 01:32:41;;;;;;;;;5.75;5.75;;;;;17.00;59.15;100873.59;2078323;28;47447;-68
2022/09/25 01:33:57;;;;;;;;;6.00;5.20;;;;;16.99;59.17;100870.03;2074615;28;48413;-65
2022/09/25 01:35:03;;;;;;;;;6.60;4.80;;;;;17.00;59.40;100868.22;2077316;28;47442;-68
2022/09/25 01:36:24;;;;;;;;;6.00;6.00;;;;;17.00;59.25;100866.41;2078071;28;47645;-67
2022/09/25 01:37:48;;;;;;;;;6.75;6.00;;;;;16.99;59.26;100866.47;2078968;28;47321;-66
2022/09/25 01:39:06;;;;;;;;;6.00;6.00;;;;;16.98;59.03;100870.09;2072716;28;47735;-66
2022/09/25 01:40:07;;;;;;;;;6.00;6.00;;;;;16.97;59.30;100871.06;2074520;28;45867;-65
2022/09/25 01:41:20;;;;;;;;;5.33;5.33;;;;;16.97;59.36;100871.94;2079191;28;47925;-67
2022/09/25 01:42:26;;;;;;;;;7.20;6.80;;;;;16.98;59.26;100872.78;2068709;28;47447;-67
2022/09/25 01:43:35;;;;;;;;;6.00;6.00;;;;;16.98;59.47;100868.31;2071253;28;47781;-66
2022/09/25 01:44:42;;;;;;;;;3.00;3.00;;;;;16.99;59.26;100869.16;2078561;28;48211;-66
2022/09/25 01:45:47;;;;;;;;;6.40;6.40;;;;;17.00;59.67;100876.25;2076504;28;48289;-66
2022/09/25 01:46:51;;;;;;;;;6.20;6.20;;;;;17.00;59.43;100868.22;2075018;28;48004;-67
2022/09/25 01:47:52;;;;;;;;;5.40;5.20;;;;;16.99;59.46;100875.41;2078218;28;47691;-66
2022/09/25 01:48:56;;;;;;;;;9.00;7.00;;;;;17.00;59.47;100870.91;2079151;28;47170;-66
2022/09/25 01:50:00;;;;;;;;;6.25;6.25;;;;;17.00;59.45;100870.91;2078876;28;47277;-66
2022/09/25 01:51:04;;;;;;;;;6.00;5.25;;;;;17.00;59.43;100868.22;2079754;28;46289;-66
2022/09/25 01:52:11;;;;;;;;;7.25;5.75;;;;;17.01;59.37;100864.59;2070569;28;47564;-65
2022/09/25 01:53:17;;;;;;;;;6.20;6.00;;;;;17.01;59.70;100867.28;2065495;28;48013;-65
2022/09/25 01:54:31;;;;;;;;;4.00;4.00;;;;;17.01;59.84;100869.97;2079405;28;47228;-66
2022/09/25 01:55:39;;;;;;;;;9.20;8.00;;;;;17.01;59.28;100867.28;2078168;28;47742;-66
2022/09/25 01:56:58;;;;;;;;;4.50;4.50;;;;;17.00;59.51;100873.59;2076575;28;47900;-66
2022/09/25 01:58:09;;;;;;;;;5.25;5.25;;;;;16.99;59.47;100869.16;2075089;28;47522;-66
2022/09/25 01:59:32;;;;;;;;;4.20;3.60;;;;;16.98;59.48;100868.31;2083521;28;47766;-65
2022/09/25 02:00:36;;;;;;;;;6.80;6.00;;;;;16.99;59.60;100866.47;2076425;28;48024;-66
2022/09/25 02:01:41;;;;;;;;;7.25;7.00;;;;;16.99;59.84;100871.84;2074379;28;47639;-65
2022/09/25 02:02:54;;;;;;;;;5.25;5.25;;;;;16.98;59.65;100864.75;2076392;28;47880;-67
2022/09/25 02:04:00;;;;;;;;;7.25;6.25;;;;;16.97;59.65;100877.28;2077313;28;47821;-66
2022/09/25 02:05:16;;;;;;;;;7.80;6.60;;;;;16.98;59.70;100878.16;2080044;28;48085;-67
2022/09/25 02:06:19;;;;;;;;;7.40;6.60;;;;;16.97;59.82;100874.59;2076421;28;47736;-66
2022/09/25 02:07:28;;;;;;;;;11.20;7.80;;;;;16.98;59.60;100883.50;2078965;28;48539;-66
2022/09/25 02:08:40;;;;;;;;;8.00;7.20;;;;;16.98;59.82;100883.50;2085399;28;48010;-67
2022/09/25 02:09:49;;;;;;;;;6.50;6.50;;;;;16.97;59.96;100885.31;2085816;28;47492;-64
2022/09/25 02:10:58;;;;;;;;;5.00;4.60;;;;;16.98;59.99;100881.72;2072168;28;47602;-67
2022/09/25 02:12:07;;;;;;;;;6.00;5.25;;;;;16.98;60.02;100878.16;2077374;28;47538;-66
2022/09/25 02:13:12;;;;;;;;;5.20;4.80;;;;;16.98;59.77;100886.19;2074099;28;49797;-66
2022/09/25 02:14:18;;;;;;;;;8.20;5.80;;;;;17.00;60.01;100887.00;2079375;28;48639;-65
2022/09/25 02:15:22;;;;;;;;;7.00;7.00;;;;;16.98;59.59;100881.72;2075399;28;46910;-67
2022/09/25 02:16:33;;;;;;;;;7.20;7.20;;;;;16.98;59.95;100875.47;2077549;28;47583;-69
2022/09/25 02:20:53;;;;;;;;;6.00;6.00;;;;;16.99;59.84;100877.22;2076214;28;45776;-66
2022/09/25 02:22:18;;;;;;;;;6.20;5.20;;;;;16.99;59.82;100871.84;2073722;28;47547;-67
2022/09/25 02:23:53;;;;;;;;;5.20;5.00;;;;;16.99;59.92;100869.16;2072330;28;48093;-66
2022/09/25 02:25:05;;;;;;;;;5.80;5.80;;;;;17.00;59.87;100870.91;2054279;28;47734;-67
2022/09/25 02:26:15;;;;;;;;;6.60;6.60;;;;;17.01;59.99;100867.28;2053290;28;48053;-67
2022/09/25 02:27:17;;;;;;;;;6.60;6.40;;;;;16.99;60.03;100875.41;2054313;28;47816;-65
2022/09/25 02:28:18;;;;;;;;;7.00;7.00;;;;;16.99;59.93;100870.03;2054360;28;47453;-66
2022/09/25 02:29:19;;;;;;;;;6.00;5.00;;;;;17.00;60.12;100870.91;2054440;28;48025;-66
2022/09/25 02:30:19;;;;;;;;;8.00;7.00;;;;;16.99;59.80;100871.84;2052964;28;48231;-66
2022/09/25 02:31:30;;;;;;;;;6.50;5.75;;;;;16.99;60.34;100872.72;2048446;28;47590;-66
2022/09/25 02:32:32;;;;;;;;;7.00;5.60;;;;;16.99;59.70;100879.88;2045845;28;47408;-66
2022/09/25 02:33:33;;;;;;;;;4.20;4.20;;;;;16.99;59.48;100877.22;2046781;28;47155;-67
2022/09/25 02:34:34;;;;;;;;;5.60;5.60;;;;;16.97;59.69;100879.97;2054525;28;47576;-68
2022/09/25 02:35:34;;;;;;;;;6.00;5.00;;;;;16.96;60.10;100872.00;2054430;28;47766;-66
2022/09/25 02:36:35;;;;;;;;;5.00;5.00;;;;;16.95;60.03;100879.16;2054277;28;47116;-68
2022/09/25 02:37:35;;;;;;;;;6.00;6.00;;;;;16.94;60.22;100868.53;2054325;28;46600;-66
2022/09/25 02:38:36;;;;;;;;;6.50;6.50;;;;;16.93;60.04;100873.00;2054520;28;47175;-67
2022/09/25 02:39:36;;;;;;;;;7.00;7.00;;;;;16.91;60.34;100874.03;2045320;28;47640;-68
2022/09/25 02:41:03;;;;;;;;;5.00;5.00;;;;;16.91;59.91;100871.34;2044785;28;47073;-66
2022/09/25 02:42:40;;;;;;;;;6.20;5.20;;;;;16.89;59.93;100874.06;2042641;28;47909;-66
2022/09/25 02:44:05;;;;;;;;;7.40;7.40;;;;;16.89;60.13;100873.19;2046557;28;47813;-67
2022/09/25 02:45:14;;;;;;;;;6.00;6.00;;;;;16.87;60.40;100875.97;2047285;28;48128;-67
2022/09/25 02:46:34;;;;;;;;;6.00;6.00;;;;;16.86;60.09;100873.34;2046022;28;47686;-67
2022/09/25 02:47:51;;;;;;;;;7.80;6.60;;;;;16.85;60.25;100874.28;2047631;28;48100;-65
2022/09/25 02:49:14;;;;;;;;;7.20;6.40;;;;;16.84;59.98;100878.78;2045875;28;48156;-67
2022/09/25 02:50:25;;;;;;;;;6.80;6.80;;;;;16.84;60.23;100884.13;2031488;28;47776;-66
2022/09/25 02:51:40;;;;;;;;;8.00;6.20;;;;;16.84;60.25;100884.13;2031529;28;47661;-66
2022/09/25 02:53:14;;;;;;;;;6.80;6.80;;;;;16.83;60.31;100882.41;2027605;28;45474;-66
2022/09/25 02:54:29;;;;;;;;;7.20;7.20;;;;;16.83;60.54;100887.75;2028854;28;47384;-66
2022/09/25 02:55:45;;;;;;;;;8.60;7.60;;;;;16.83;60.38;100879.72;2018673;29;47759;-65
2022/09/25 02:57:09;;;;;;;;;8.40;8.20;;;;;16.83;60.74;100884.22;2012418;29;47654;-66
2022/09/25 02:58:36;;;;;;;;;7.00;7.00;;;;;16.81;60.18;100886.97;2018831;29;47526;-66
2022/09/25 02:59:43;;;;;;;;;7.00;7.00;;;;;16.80;60.61;100890.59;2011454;29;48378;-67
2022/09/25 03:00:48;;;;;;;;;10.60;6.80;;;;;16.80;60.63;100890.59;2010058;29;47475;-66
2022/09/25 03:01:50;;;;;;;;;6.00;6.00;;;;;16.80;60.35;100897.75;2010681;29;47950;-68
2022/09/25 03:02:55;;;;;;;;;6.60;6.60;;;;;16.80;60.66;100895.94;2022399;29;47517;-66
2022/09/25 03:03:58;;;;;;;;;8.00;7.60;;;;;16.79;60.44;100893.34;2021340;29;48246;-67
2022/09/25 03:05:01;;;;;;;;;7.60;7.60;;;;;16.79;60.60;100891.53;2023403;29;47842;-66
2022/09/25 03:06:03;;;;;;;;;7.00;7.00;;;;;16.80;60.45;100893.28;2021857;29;47897;-67
2022/09/25 03:07:05;;;;;;;;;8.00;7.20;;;;;16.81;60.29;100896.81;2023076;29;45164;-66
2022/09/25 03:09:28;;;;;;;;;7.00;7.00;;;;;16.82;60.57;100896.75;2022114;29;47939;-65
2022/09/25 03:10:32;;;;;;;;;8.20;7.40;;;;;16.83;60.68;100900.28;2022295;29;47639;-66
2022/09/25 03:11:39;;;;;;;;;8.40;7.80;;;;;16.82;60.25;100893.19;2023536;29;47501;-67
2022/09/25 03:12:39;;;;;;;;;6.20;6.20;;;;;16.82;60.81;100894.06;2021389;29;47405;-67
2022/09/25 03:13:41;;;;;;;;;8.00;6.50;;;;;16.82;60.41;100896.75;2022813;29;47428;-64
2022/09/25 03:14:42;;;;;;;;;6.40;6.40;;;;;16.83;60.56;100894.94;2021489;29;47394;-67
2022/09/25 03:15:47;;;;;;;;;7.60;6.20;;;;;16.82;60.21;100896.75;2023432;29;46991;-66
2022/09/25 03:16:55;;;;;;;;;7.20;7.20;;;;;16.83;60.65;100894.94;2024277;29;47324;-67
2022/09/25 03:17:56;;;;;;;;;7.60;7.60;;;;;16.82;60.54;100890.53;2018296;29;47521;-67
2022/09/25 03:18:57;;;;;;;;;9.60;8.20;;;;;16.81;60.22;100894.13;2022841;29;47739;-66
2022/09/25 03:19:57;;;;;;;;;9.00;6.25;;;;;16.80;60.84;100890.59;2041232;28;47825;-65
2022/09/25 03:20:58;;;;;;;;;5.50;5.25;;;;;16.81;60.53;100900.38;2054566;28;47072;-66
2022/09/25 03:21:59;;;;;;;;;7.50;6.25;;;;;16.80;60.54;100897.75;2052715;28;47983;-65
2022/09/25 03:22:59;;;;;;;;;7.33;5.67;;;;;16.80;60.35;100897.75;2035283;28;48292;-66
2022/09/25 03:24:00;;;;;;;;;9.00;8.00;;;;;16.79;60.68;100894.22;2035904;28;47493;-66
2022/09/25 03:25:00;;;;;;;;;7.00;6.00;;;;;16.81;60.55;100899.50;2053331;28;47432;-65
2022/09/25 03:26:01;;;;;;;;;6.33;5.00;;;;;16.80;60.63;100908.47;2052959;28;46992;-66
2022/09/25 03:27:01;;;;;;;;;8.75;8.75;;;;;16.80;60.35;100904.00;2054396;28;47795;-66
2022/09/25 03:28:02;;;;;;;;;7.50;6.75;;;;;16.81;60.21;100903.03;2069993;28;48316;-66
2022/09/25 03:29:03;;;;;;;;;9.20;8.00;;;;;16.81;60.46;100905.72;2079556;28;47865;-66
2022/09/25 03:30:04;;;;;;;;;7.50;7.50;;;;;16.81;60.43;100915.59;2080815;28;47578;-68
2022/09/25 03:31:09;;;;;;;;;6.25;6.25;;;;;16.79;60.68;100910.28;2071959;28;47416;-66
2022/09/25 03:32:09;;;;;;;;;5.00;4.20;;;;;16.80;60.63;100912.03;2070365;28;48112;-67
2022/09/25 03:33:11;;;;;;;;;8.50;8.50;;;;;16.80;61.08;100912.03;2074568;28;47733;-67
2022/09/25 03:34:14;;;;;;;;;8.60;8.60;;;;;16.80;60.99;100916.53;2075223;28;48189;-66
2022/09/25 03:35:14;;;;;;;;;10.60;10.60;;;;;16.80;60.75;100916.53;2079859;28;47988;-66
2022/09/25 03:36:20;;;;;;;;;7.25;7.00;;;;;16.79;60.76;100921.00;2073276;28;47206;-67
2022/09/25 03:37:23;;;;;;;;;6.80;6.80;;;;;16.80;60.74;100914.72;2063015;28;47526;-66
2022/09/25 03:38:24;;;;;;;;;4.00;3.20;;;;;16.81;60.83;100915.59;2058942;28;47987;-66
2022/09/25 03:39:24;;;;;;;;;8.75;8.75;;;;;16.79;60.51;100912.97;2071152;28;47387;-66
2022/09/25 03:40:25;;;;;;;;;8.00;7.50;;;;;16.80;61.03;100911.16;2075654;28;47614;-65
2022/09/25 03:41:30;;;;;;;;;8.50;7.75;;;;;16.80;60.84;100913.84;2080134;28;47594;-67
2022/09/25 03:42:31;;;;;;;;;9.20;8.20;;;;;16.80;61.02;100921.88;2077986;28;47573;-66
2022/09/25 03:43:32;;;;;;;;;8.50;8.50;;;;;16.80;60.93;100919.19;2080252;28;47922;-66
2022/09/25 03:44:32;;;;;;;;;9.60;7.60;;;;;16.79;60.89;100921.00;2077380;28;48033;-67
2022/09/25 03:45:33;;;;;;;;;5.50;5.50;;;;;16.80;61.06;100913.84;2080355;28;47143;-66
2022/09/25 03:46:34;;;;;;;;;8.00;7.25;;;;;16.80;60.62;100919.19;2078511;28;45118;-67
2022/09/25 03:47:34;;;;;;;;;7.80;7.80;;;;;16.79;60.86;100918.34;2079744;28;47324;-67
2022/09/25 03:48:35;;;;;;;;;6.00;6.00;;;;;16.79;60.86;100921.00;2078396;28;47536;-66
2022/09/25 03:49:35;;;;;;;;;8.00;8.00;;;;;16.78;60.97;100924.63;2080176;28;48220;-66
2022/09/25 03:50:38;;;;;;;;;9.50;8.25;;;;;16.79;60.70;100922.81;2077606;28;46516;-68
2022/09/25 03:51:38;;;;;;;;;10.40;10.20;;;;;16.78;60.80;100919.28;2062461;28;47251;-67
2022/09/25 03:52:39;;;;;;;;;9.00;9.00;;;;;16.76;61.07;100918.44;2061213;28;47608;-66
2022/09/25 03:53:40;;;;;;;;;9.50;8.25;;;;;16.76;60.59;100915.75;2080181;28;47248;-65
2022/09/25 03:54:40;;;;;;;;;8.00;8.00;;;;;16.75;60.86;100917.56;2078443;28;47439;-66
2022/09/25 03:55:40;;;;;;;;;10.50;9.75;;;;;16.73;60.69;100916.78;2078929;28;47408;-66
2022/09/25 03:56:41;;;;;;;;;8.50;8.50;;;;;16.73;60.50;100916.78;2076811;28;47241;-67
2022/09/25 03:57:42;;;;;;;;;8.00;8.00;;;;;16.74;61.00;100928.38;2074193;28;47484;-66
2022/09/25 03:58:42;;;;;;;;;8.00;8.00;;;;;16.74;60.90;100926.56;2080009;28;45819;-65
2022/09/25 03:59:43;;;;;;;;;7.50;7.50;;;;;16.74;60.88;100918.50;2082946;28;47232;-66
2022/09/25 04:00:45;;;;;;;;;9.75;8.00;;;;;16.72;61.13;100917.72;2068018;28;47295;-65
2022/09/25 04:01:46;;;;;;;;;9.40;8.00;;;;;16.72;60.86;100919.53;2066261;28;47630;-65
2022/09/25 04:02:46;;;;;;;;;7.40;7.40;;;;;16.71;60.72;100917.78;2076805;28;47802;-66
2022/09/25 04:03:47;;;;;;;;;7.75;7.75;;;;;16.70;60.97;100919.59;2077508;28;48213;-66
2022/09/25 04:04:49;;;;;;;;;6.20;6.20;;;;;16.69;61.13;100915.19;2078441;28;48180;-66
2022/09/25 04:05:50;;;;;;;;;8.00;7.20;;;;;16.68;60.54;100921.47;2070024;28;47622;-67
2022/09/25 04:06:50;;;;;;;;;6.75;6.75;;;;;16.67;60.95;100917.06;2070186;28;47993;-66
2022/09/25 04:07:50;;;;;;;;;8.00;8.00;;;;;16.67;61.13;100918.84;2071567;28;47100;-67
2022/09/25 04:08:52;;;;;;;;;6.75;6.75;;;;;16.68;60.79;100920.59;2078810;28;47903;-66
2022/09/25 04:09:52;;;;;;;;;8.00;7.40;;;;;16.66;60.99;100920.66;2078260;28;47037;-66
2022/09/25 04:10:55;;;;;;;;;6.75;6.75;;;;;16.67;61.03;100925.09;2078141;28;47546;-67
2022/09/25 04:11:55;;;;;;;;;8.60;8.60;;;;;16.67;60.68;100922.41;2077208;28;47020;-66
2022/09/25 04:12:56;;;;;;;;;6.75;6.50;;;;;16.67;60.98;100933.13;2076565;28;47444;-67
2022/09/25 04:13:56;;;;;;;;;9.25;9.25;;;;;16.67;60.75;100925.09;2078810;28;47455;-66
2022/09/25 04:14:57;;;;;;;;;7.00;7.00;;;;;16.67;60.56;100932.22;2075676;28;47386;-67
2022/09/25 04:15:59;;;;;;;;;7.00;6.00;;;;;16.67;60.68;100925.09;2071770;28;47131;-67
2022/09/25 04:17:00;;;;;;;;;7.00;6.00;;;;;16.67;60.75;100924.19;2075343;28;47573;-66
2022/09/25 04:18:00;;;;;;;;;8.75;8.75;;;;;16.67;60.80;100925.09;2076859;28;47445;-67
2022/09/25 04:19:01;;;;;;;;;10.25;7.50;;;;;16.67;60.99;100927.78;2075872;28;47279;-66
2022/09/25 04:20:01;;;;;;;;;7.75;7.25;;;;;16.67;60.73;100926.88;2077192;28;47840;-66
2022/09/25 04:21:05;;;;;;;;;8.25;8.25;;;;;16.68;60.48;100923.28;2074789;28;47089;-66
2022/09/25 04:22:05;;;;;;;;;8.60;7.40;;;;;16.67;60.80;100927.78;2072889;28;47452;-65
2022/09/25 04:23:06;;;;;;;;;9.50;8.50;;;;;16.67;60.74;100924.19;2080070;28;48409;-67
2022/09/25 04:25:25;;;;;;;;;10.20;9.40;;;;;16.66;60.73;100926.00;2079462;28;47156;-68
2022/09/25 04:26:25;;;;;;;;;8.50;8.50;;;;;16.65;60.92;100934.13;2078469;28;47400;-66
2022/09/25 04:27:26;;;;;;;;;8.75;8.50;;;;;16.63;60.92;100931.47;2079152;28;47520;-66
2022/09/25 04:28:29;;;;;;;;;10.25;9.50;;;;;16.63;61.08;100934.16;2078142;28;47395;-67
2022/09/25 04:29:31;;;;;;;;;9.20;8.40;;;;;16.63;61.02;100930.59;2079222;28;47158;-66
2022/09/25 04:30:32;;;;;;;;;9.60;9.60;;;;;16.61;60.88;100930.66;2078268;28;47536;-66
2022/09/25 04:31:32;;;;;;;;;8.20;8.00;;;;;16.62;60.77;100932.41;2070695;28;47701;-67
2022/09/25 04:33:51;;;;;;;;;12.40;10.40;;;;;16.61;60.72;100927.13;2072515;28;47512;-68
2022/09/25 04:34:52;;;;;;;;;10.00;8.50;;;;;16.61;61.13;100927.13;2078511;28;47984;-66
2022/09/25 04:35:52;;;;;;;;;11.50;10.50;;;;;16.61;60.84;100935.16;2078183;28;47662;-66
2022/09/25 04:36:53;;;;;;;;;9.75;9.50;;;;;16.60;60.76;100923.56;2079007;28;47033;-66
2022/09/25 04:37:53;;;;;;;;;12.25;11.25;;;;;16.60;61.33;100931.63;2078737;28;47336;-67
2022/09/25 04:38:54;;;;;;;;;9.50;9.50;;;;;16.60;60.99;100930.75;2078920;28;47676;-66
2022/09/25 04:39:56;;;;;;;;;10.00;9.75;;;;;16.60;60.78;100930.75;2077802;28;47177;-66
2022/09/25 04:40:56;;;;;;;;;11.20;10.60;;;;;16.59;61.49;100929.00;2079159;28;47775;-67
2022/09/25 04:41:57;;;;;;;;;10.50;9.50;;;;;16.58;61.20;100929.94;2078108;28;47523;-66
2022/09/25 04:42:59;;;;;;;;;11.25;11.25;;;;;16.58;60.92;100929.94;2079081;28;47427;-66
2022/09/25 04:44:04;;;;;;;;;12.60;12.00;;;;;16.57;60.78;100933.56;2078254;28;48006;-65
2022/09/25 04:45:05;;;;;;;;;13.60;13.20;;;;;16.57;60.96;100931.75;2070743;28;47381;-68
2022/09/25 04:46:07;;;;;;;;;11.75;11.00;;;;;16.57;61.09;100936.25;2069631;28;48113;-66
2022/09/25 04:47:07;;;;;;;;;15.80;12.40;;;;;16.55;61.27;100930.94;2069117;28;48323;-67
2022/09/25 04:48:07;;;;;;;;;12.50;11.50;;;;;16.58;60.95;100938.84;2068832;28;47330;-66
2022/09/25 04:49:08;;;;;;;;;10.75;10.75;;;;;16.58;60.90;100940.66;2078882;28;47997;-65
2022/09/25 04:50:08;;;;;;;;;12.75;12.75;;;;;16.57;61.21;100945.16;2078334;28;47393;-66
2022/09/25 04:51:08;;;;;;;;;14.00;13.50;;;;;16.55;61.27;100935.44;2078321;28;47433;-66
2022/09/25 04:52:12;;;;;;;;;12.75;11.75;;;;;16.54;60.87;100937.25;2077943;28;47292;-68
2022/09/25 04:53:12;;;;;;;;;15.60;13.20;;;;;16.54;60.79;100942.59;2078632;28;47595;-66
2022/09/25 04:54:15;;;;;;;;;14.50;14.25;;;;;16.52;61.06;100939.13;2069416;28;47696;-67
2022/09/25 04:55:16;;;;;;;;;12.40;12.40;;;;;16.51;61.43;100940.03;2055300;28;47478;-67
2022/09/25 04:56:17;;;;;;;;;12.60;11.40;;;;;16.52;60.92;100947.16;2062781;28;47583;-67
2022/09/25 04:57:19;;;;;;;;;12.00;11.75;;;;;16.53;61.00;100938.19;2077207;28;47635;-65
2022/09/25 04:58:20;;;;;;;;;13.80;13.20;;;;;16.54;61.19;100939.94;2077399;28;47912;-66
2022/09/25 04:59:21;;;;;;;;;14.00;13.00;;;;;16.54;60.87;100942.59;2086026;28;45734;-66
2022/09/25 05:00:23;;;;;;;;;15.00;14.00;;;;;16.56;61.31;100945.22;2084927;28;47496;-67
2022/09/25 05:01:23;;;;;;;;;12.20;12.20;;;;;16.57;60.82;100952.31;2072552;28;48270;-67
2022/09/25 05:02:27;;;;;;;;;13.00;12.25;;;;;16.55;60.74;100951.53;2077941;28;47223;-66
2022/09/25 05:03:28;;;;;;;;;11.20;11.20;;;;;16.54;61.28;100950.66;2074426;28;48501;-66
2022/09/25 05:04:29;;;;;;;;;12.20;12.20;;;;;16.54;61.02;100950.66;2077152;28;47859;-65
2022/09/25 05:05:30;;;;;;;;;15.00;13.75;;;;;16.55;61.20;100955.06;2077320;28;47306;-66
2022/09/25 05:06:31;;;;;;;;;13.20;11.40;;;;;16.56;60.76;100958.63;2078073;28;47292;-66
2022/09/25 05:07:31;;;;;;;;;13.50;13.50;;;;;16.55;60.79;100957.75;2076968;28;47852;-66
2022/09/25 05:08:31;;;;;;;;;14.50;14.50;;;;;16.54;61.20;100958.69;2077850;28;48174;-67
2022/09/25 05:09:32;;;;;;;;;16.50;15.50;;;;;16.54;61.20;100957.81;2079612;28;47809;-66